This demonstration page uses our WeatherBlox Daily Observations layout. Learn more.

36.19886, -115.1175

Hourly Observations for January 20, 2020

Temp ( °F °C ) Dew Point ( °F °C ) Humidity (%) Winds ( mph kmh ) Pressure ( in mb ) Visibility ( mi km ) Precip ( " mm )
12:53 am 00:53 Clear 54 12.2 21 -6.1 28 28 WSW 5 7 30.22 1023 10 16.0934 0 0
1:53 am 01:53 Clear 54 12.2 21 -6.1 28 28 SSW 3 6 30.22 1023 10 16.0934 0 0
2:53 am 02:53 Clear 53 11.7 22 -5.6 30 30 SSW 7 11 30.2 1023 10 16.0934 0 0
3:53 am 03:53 Clear 52 11.1 21 -6.1 30 30 SW 6 9 30.2 1023 10 16.0934 0 0
4:53 am 04:53 Clear 52 11.1 21 -6.1 30 30 S 5 7 30.2 1023 10 16.0934 0 0
5:53 am 05:53 Clear 53 11.7 21 -6.1 28 28 Calm 30.2 1023 10 16.0934 0 0
6:53 am 06:53 Sunny 52 11.1 22 -5.6 31 31 VRB 5 7 30.22 1023 10 16.0934 0 0
7:53 am 07:53 Sunny 53 11.7 21 -6.1 28 28 Calm 30.22 1024 10 16.0934 0 0
8:53 am 08:53 Sunny 56 13.3 22 -5.6 27 27 S 6 9 30.23 1024 10 16.0934 0 0
9:53 am 09:53 Sunny 57 13.9 23 -5 27 27 S 8 13 30.24 1024 10 16.0934 0 0
10:53 am 10:53 Sunny 60 15.6 22 -5.6 23 23 S 5 7 30.21 1023 10 16.0934 0 0
11:53 am 11:53 Sunny 59 15 21 -6.1 23 23 SSE 5 7 30.17 1022 10 16.0934 0 0
12:53 pm 12:53 Sunny 60 15.6 21 -6.1 22 22 SE 6 9 30.14 1021 10 16.0934 0 0
1:53 pm 13:53 Sunny 61 16.1 21 -6.1 21 21 E 8 13 30.1 1019 10 16.0934 0 0
2:53 pm 14:53 Sunny 61 16.1 20 -6.7 20 20 ESE 10 17 30.09 1019 10 16.0934 0 0
3:53 pm 15:53 Sunny 60 15.6 21 -6.1 22 22 SE 6 9 30.09 1019 10 16.0934 0 0
4:53 pm 16:53 Sunny 59 15 21 -6.1 23 23 SW 3 6 30.09 1019 10 16.0934 0 0
5:53 pm 17:53 Clear 56 13.3 23 -5 28 28 SE 3 6 30.08 1019 10 16.0934 0 0
6:53 pm 18:53 Clear 54 12.2 23 -5 30 30 Calm 30.08 1019 10 16.0934 0 0
7:53 pm 19:53 Mostly Clear 56 13.3 23 -5 28 28 WSW 3 6 30.09 1019 10 16.0934 0 0
8:53 pm 20:53 Cloudy 56 13.3 23 -5 28 28 Calm 30.07 1018 10 16.0934 0 0
9:53 pm 21:53 Cloudy 53 11.7 25 -3.9 34 34 Calm 30.07 1018 10 16.0934 0 0
10:53 pm 22:53 Cloudy 53 11.7 26 -3.3 35 35 Calm 30.06 1018 10 16.0934 0 0
11:53 pm 23:53 Cloudy 53 11.7 26 -3.3 35 35 Calm 30.05 1018 10 16.0934 0 0

Powered by AerisWeather